Latest Weather Observations for Gatton

IDQ60801

Issued at 6:05 pm EST Tuesday 23 September 2014 (issued every 30 minutes, with the page automatically refreshed every 10 minutes)

About weather observations | Map of weather stations | Latest weather observations for QLD | Other Formats
Station Details ID: 040082 Name: UNIVERSITY OF QUEENSLAND GATTON Lat: -27.54 Lon: 152.34 Height: 89.0 m
Data from the previous 72 hours. | See also: Recent months at Gatton
Date/Time
EST
Temp
°C
App
Temp
°C
Dew
Point
Rel
Hum
%
Delta-T
°C
Wind Press
QNH
hPa
Press
MSL
hPa
Rain
since 9 am
mm
Dir
 
Spd
km/h
Gust
km/h
Spd
kts
Gust
kts
23/06:00pm 19.4 15.3 6.2 42 6.6 ENE 17 22 9 12 - - 0.0
23/05:30pm 19.9 15.4 5.9 40 7.0 ENE 19 24 10 13 - - 0.0
23/05:00pm 21.7 16.4 5.2 34 8.2 E 22 30 12 16 - - 0.0
23/04:30pm 22.5 17.1 6.3 35 8.3 E 24 33 13 18 - - 0.0
23/04:00pm 22.8 17.2 7.0 36 8.2 E 26 35 14 19 - - 0.0
23/03:30pm 23.9 19.4 8.7 38 8.2 E 22 33 12 18 - - 0.0
23/03:00pm 23.8 19.8 8.2 37 8.3 ENE 19 30 10 16 - - 0.0
23/02:30pm 23.6 19.0 9.6 41 7.6 E 24 33 13 18 - - 0.0
23/02:00pm 23.0 18.4 9.8 43 7.2 ESE 24 37 13 20 - - 0.0
23/01:30pm 23.5 18.6 9.9 42 7.5 E 26 33 14 18 - - 0.0
23/01:00pm 22.9 18.6 10.7 46 6.8 ENE 24 37 13 20 - - 0.0
23/12:30pm 23.3 17.5 9.3 41 7.6 E 30 39 16 21 - - 0.0
23/12:00pm 22.3 17.4 9.8 45 6.8 ESE 26 59 14 32 - - 0.0
23/11:30am 22.8 18.2 8.1 39 7.8 E 22 30 12 16 - - 0.0
23/11:00am 23.3 18.1 9.0 40 7.7 E 26 39 14 21 - - 0.0
23/10:30am 21.6 16.8 8.8 44 6.8 E 24 35 13 19 - - 0.0
23/10:00am 20.9 16.1 8.9 46 6.4 E 24 28 13 15 - - 0.0
23/09:30am 20.9 15.5 9.5 48 6.1 E 28 41 15 22 - - 0.0
23/09:00am 21.3 16.7 9.5 47 6.3 ESE 24 32 13 17 - - 0.0
23/08:30am 20.4 16.5 9.6 50 5.8 SE 20 28 11 15 - - 0.0
23/08:00am 19.1 14.9 9.6 54 5.1 SE 22 28 12 15 - - 0.0
23/07:30am 18.3 14.6 9.4 56 4.7 SE 19 30 10 16 - - 0.0
23/07:00am 16.8 13.9 9.5 62 3.8 SSE 15 20 8 11 - - 0.0
23/06:30am 16.6 13.7 9.8 64 3.6 ESE 15 24 8 13 - - 0.0
23/06:00am 15.8 13.7 9.7 67 3.2 SE 11 17 6 9 - - 0.0
23/05:30am 15.8 13.7 9.9 68 3.1 SE 11 15 6 8 - - 0.0
23/05:00am 15.8 14.1 9.7 67 3.2 SE 9 15 5 8 - - 0.0
23/04:30am 15.6 13.5 9.9 69 3.0 SE 11 17 6 9 - - 0.0
23/04:00am 15.5 13.8 9.8 69 3.0 SSE 9 15 5 8 - - 0.0
23/03:30am 15.0 14.3 10.0 72 2.6 SE 4 7 2 4 - - 0.0
23/03:00am 14.9 14.3 10.5 75 2.3 E 4 7 2 4 - - 0.0
23/02:30am 15.2 14.0 10.4 73 2.5 ESE 7 11 4 6 - - 0.0
23/02:00am 14.7 14.6 10.9 78 2.0 SSE 2 6 1 3 - - 0.0
23/01:30am 15.3 14.5 11.1 76 2.2 SSE 6 7 3 4 - - 0.0
23/01:00am 15.0 13.8 11.6 80 1.8 N 9 11 5 6 - - 0.0
23/12:30am 15.6 14.9 11.4 76 2.3 SE 6 9 3 5 - - 0.0
23/12:00am 15.6 14.8 11.6 77 2.2 S 7 11 4 6 - - 0.0
 
Date/Time
EST
Temp
°C
App
Temp
°C
Dew
Point
Rel
Hum
%
Delta-T
°C
Wind Press
QNH
hPa
Press
MSL
hPa
Rain
since 9 am
mm
Dir
 
Spd
km/h
Gust
km/h
Spd
kts
Gust
kts
22/11:30pm 15.6 14.8 11.2 75 2.4 SSE 6 7 3 4 - - 0.0
22/11:00pm 15.8 14.5 11.2 74 2.5 E 9 11 5 6 - - 0.0
22/10:30pm 15.9 14.2 11.1 73 2.6 E 11 15 6 8 - - 0.0
22/10:00pm 16.5 14.2 10.6 68 3.2 ESE 13 20 7 11 - - 0.0
22/09:30pm 16.5 13.7 11.2 71 2.9 E 17 22 9 12 - - 0.0
22/09:00pm 16.3 13.3 10.8 70 2.9 ESE 17 24 9 13 - - 0.0
22/08:30pm 17.0 12.7 10.8 67 3.3 ESE 24 35 13 19 - - 0.0
22/08:00pm 17.1 14.5 12.0 72 2.8 E 17 20 9 11 - - 0.0
22/07:30pm 16.6 14.7 11.9 74 2.6 E 13 17 7 9 - - 0.0
22/07:00pm 16.3 13.5 11.2 72 2.8 E 17 26 9 14 - - 0.0
22/06:30pm 17.5 13.5 10.4 63 3.8 E 22 30 12 16 - - 0.0
22/06:00pm 18.2 13.3 10.1 59 4.3 E 26 35 14 19 - - 0.0
22/05:30pm 19.1 15.2 10.9 59 4.5 ESE 22 30 12 16 - - 0.0
22/05:00pm 20.0 15.2 10.4 54 5.2 E 26 35 14 19 - - 0.0
22/04:30pm 20.3 15.9 10.4 53 5.4 ESE 24 35 13 19 - - 0.0
22/04:00pm 20.5 17.3 12.0 58 4.8 SE 20 28 11 15 - - 0.0
22/03:30pm 20.5 16.0 11.4 56 5.0 SE 26 35 14 19 - - 0.0
22/03:00pm 21.4 16.8 10.9 51 5.8 ESE 26 39 14 21 - - 0.0
22/02:30pm 21.7 16.3 10.8 50 6.0 ESE 30 39 16 21 - - 0.0
22/02:00pm 22.9 17.6 10.0 44 7.1 E 28 41 15 22 - - 0.0
22/01:30pm 23.1 17.6 10.5 45 7.0 E 30 41 16 22 - - 0.0
22/01:00pm 22.4 17.8 10.9 48 6.4 ESE 26 32 14 17 - - 0.0
22/12:30pm 21.6 18.0 11.9 54 5.5 ESE 22 32 12 17 - - 0.0
22/12:00pm 20.5 15.6 11.4 56 5.0 SE 28 37 15 20 - - 0.0
22/11:30am 21.2 17.0 11.0 52 5.6 ESE 24 39 13 21 - - 0.0
22/11:00am 21.3 17.2 11.3 53 5.6 ESE 24 33 13 18 - - 0.0
22/10:30am 20.1 16.3 11.3 57 4.9 ESE 22 32 12 17 - - 0.0
22/10:00am 20.9 16.8 12.8 60 4.6 ESE 26 33 14 18 - - 0.0
22/09:30am 19.8 15.8 11.8 60 4.5 ESE 24 32 13 17 - - 0.0
22/09:00am 19.8 15.9 12.1 61 4.3 SE 24 30 13 16 - - 0.6
22/08:30am 18.5 14.4 11.6 64 3.8 SE 24 32 13 17 - - 0.6
22/08:00am 17.2 14.2 10.6 65 3.5 SE 17 24 9 13 - - 0.6
22/07:30am 16.9 14.1 11.2 69 3.1 SE 17 20 9 11 - - 0.6
22/07:00am 15.6 13.7 10.4 71 2.8 ESE 11 20 6 11 - - 0.6
22/06:30am 14.4 13.3 10.8 79 1.9 E 7 7 4 4 - - 0.6
22/06:00am 13.8 12.3 10.4 80 1.8 ENE 9 13 5 7 - - 0.6
22/05:30am 13.2 12.1 10.0 81 1.7 NE 6 9 3 5 - - 0.6
22/05:00am 13.4 12.2 10.4 82 1.6 E 7 11 4 6 - - 0.6
22/04:30am 13.1 12.1 10.3 83 1.5 ENE 6 7 3 4 - - 0.6
22/04:00am 13.2 11.7 10.4 83 1.5 E 9 13 5 7 - - 0.6
22/03:30am 13.2 12.2 11.1 87 1.1 E 7 11 4 6 - - 0.6
22/03:00am 13.3 13.9 11.9 91 0.8 CALM 0 0 0 0 - - 0.6
22/02:30am 13.5 14.0 11.6 88 1.0 CALM 0 0 0 0 - - 0.6
22/02:00am 13.9 14.6 12.1 89 1.0 CALM 0 0 0 0 - - 0.6
22/01:30am 13.9 13.0 12.5 91 0.8 N 9 9 5 5 - - 0.6
22/01:00am 14.0 13.5 12.2 89 1.0 N 6 6 3 3 - - 0.6
22/12:30am 14.2 13.7 12.6 90 0.9 NNW 7 9 4 5 - - 0.6
22/12:00am 14.3 15.0 12.2 87 1.1 CALM 0 0 0 0 - - 0.6
 
Date/Time
EST
Temp
°C
App
Temp
°C
Dew
Point
Rel
Hum
%
Delta-T
°C
Wind Press
QNH
hPa
Press
MSL
hPa
Rain
since 9 am
mm
Dir
 
Spd
km/h
Gust
km/h
Spd
kts
Gust
kts
21/11:30pm 14.3 13.3 12.3 88 1.1 SSE 9 11 5 6 - - 0.6
21/11:00pm 14.5 13.2 12.4 87 1.1 SE 11 17 6 9 - - 0.6
21/10:30pm 15.5 13.2 11.9 79 2.0 SE 15 22 8 12 - - 0.6
21/10:00pm 15.3 14.3 12.2 82 1.7 SSE 9 13 5 7 - - 0.6
21/09:30pm 15.1 14.4 11.5 79 1.9 S 6 9 3 5 - - 0.6
21/09:00pm 15.2 13.2 11.4 78 2.0 E 13 17 7 9 - - 0.6
21/08:30pm 15.4 13.3 11.2 76 2.3 E 13 17 7 9 - - 0.6
21/08:00pm 16.4 13.7 11.6 73 2.6 E 17 24 9 13 - - 0.6
21/07:30pm 15.9 14.1 12.1 78 2.1 E 13 17 7 9 - - 0.6
21/07:00pm 16.3 14.5 12.1 76 2.3 E 13 19 7 10 - - 0.6
21/06:30pm 15.5 15.4 13.2 86 1.3 S 6 7 3 4 - - 0.6
21/06:00pm 15.8 16.5 13.3 85 1.4 SE 2 7 1 4 - - 0.4
21/05:30pm 16.1 12.8 12.8 81 1.8 SE 22 39 12 21 - - 0.0
21/05:12pm 19.1 13.9 10.4 57 4.7 E 28 48 15 26 - - 0.0
21/05:00pm 19.9 15.3 9.8 52 5.4 E 24 32 13 17 - - 0.0
21/04:30pm 20.7 16.6 8.7 46 6.3 E 20 28 11 15 - - 0.0
21/04:00pm 21.4 16.4 8.0 42 7.0 E 24 32 13 17 - - 0.0
21/03:30pm 21.3 16.6 9.2 46 6.5 E 24 33 13 18 - - 0.0
21/03:00pm 22.3 18.2 8.8 42 7.2 E 20 35 11 19 - - 0.0
21/02:30pm 22.1 17.3 8.9 43 7.1 E 24 32 13 17 - - 0.0
21/02:00pm 22.7 18.8 8.8 41 7.4 E 19 24 10 13 - - 0.0
21/01:30pm 21.8 17.4 9.0 44 6.8 E 22 30 12 16 - - 0.0
21/01:00pm 22.8 19.2 8.5 40 7.6 E 17 28 9 15 - - 0.0
21/12:30pm 22.2 18.0 8.3 41 7.3 ESE 20 30 11 16 - - 0.0
21/12:00pm 22.5 18.5 9.0 42 7.2 SE 20 28 11 15 - - 0.0
21/11:30am 22.1 18.0 8.6 42 7.2 SE 20 30 11 16 - - 0.0
21/11:00am 22.6 18.2 10.4 46 6.7 E 24 35 13 19 - - 0.0
21/10:30am 21.7 17.5 9.6 46 6.5 E 22 33 12 18 - - 0.0
21/10:00am 20.6 16.6 9.2 48 6.1 ESE 20 30 11 16 - - 0.0
21/09:30am 20.3 15.1 8.9 48 6.0 ESE 26 32 14 17 - - 0.0
21/09:00am 19.5 15.9 9.7 53 5.2 SE 19 26 10 14 - - 0.0
21/08:30am 18.8 15.6 9.8 56 4.8 SE 17 22 9 12 - - 0.0
21/08:00am 17.7 13.9 9.8 60 4.2 SE 20 32 11 17 - - 0.0
21/07:30am 16.3 13.3 9.3 63 3.6 SSE 15 24 8 13 - - 0.0
21/07:00am 14.2 13.5 10.2 77 2.1 SE 4 9 2 5 - - 0.0
21/06:30am 10.6 9.4 8.0 84 1.3 S 4 6 2 3 - - 0.0
21/06:00am 9.7 7.8 7.6 87 1.0 E 7 9 4 5 - - 0.0
21/05:30am 9.5 7.9 8.1 91 0.7 ESE 6 9 3 5 - - 0.0
21/05:00am 8.5 7.8 7.1 91 0.7 CALM 0 0 0 0 - - 0.0
21/04:30am 8.7 8.1 7.5 92 0.6 CALM 0 2 0 1 - - 0.0
21/04:00am 8.3 7.6 6.8 90 0.7 CALM 0 0 0 0 - - 0.0
21/03:30am 8.8 8.0 6.6 86 1.0 CALM 0 0 0 0 - - 0.0
21/03:00am 9.8 9.2 7.6 86 1.1 CALM 0 0 0 0 - - 0.0
21/02:30am 10.8 9.8 8.7 87 1.0 S 4 6 2 3 - - 0.0
21/02:00am 9.7 7.9 7.8 88 0.9 S 7 9 4 5 - - 0.0
21/01:30am 9.2 8.1 7.0 86 1.0 SSE 2 6 1 3 - - 0.0
21/01:00am 9.2 8.2 5.4 77 1.7 CALM 0 0 0 0 - - 0.0
21/12:30am 10.7 10.0 7.0 78 1.8 CALM 0 0 0 0 - - 0.0
21/12:00am 11.6 10.5 8.5 81 1.5 ESE 4 7 2 4 - - 0.0
 
Date/Time
EST
Temp
°C
App
Temp
°C
Dew
Point
Rel
Hum
%
Delta-T
°C
Wind Press
QNH
hPa
Press
MSL
hPa
Rain
since 9 am
mm
Dir
 
Spd
km/h
Gust
km/h
Spd
kts
Gust
kts
20/11:30pm 12.5 12.2 8.8 78 1.9 CALM 0 7 0 4 - - 0.0
20/11:00pm 13.5 12.0 8.6 72 2.5 ESE 6 7 3 4 - - 0.0
20/10:30pm 14.8 13.0 9.4 70 2.8 SSE 9 11 5 6 - - 0.0
20/10:00pm 14.7 13.1 8.9 68 3.0 SSE 7 9 4 5 - - 0.0
20/09:30pm 16.1 14.7 9.5 65 3.4 SE 7 9 4 5 - - 0.0
20/09:00pm 17.2 14.4 9.9 62 3.9 ESE 15 20 8 11 - - 0.0
20/08:30pm 18.0 14.8 10.1 60 4.2 E 17 24 9 13 - - 0.0
20/08:00pm 18.2 14.8 10.6 61 4.1 E 19 26 10 14 - - 0.0
20/07:30pm 18.5 15.1 10.6 60 4.3 E 19 24 10 13 - - 0.0
20/07:00pm 18.3 14.3 10.4 60 4.2 E 22 30 12 16 - - 0.0
20/06:30pm 18.9 15.0 10.7 59 4.4 E 22 32 12 17 - - 0.0

Other Formats:

Comma delimited format used in spreadsheet applications
http://www.bom.gov.au/fwo/IDQ60801/IDQ60801.94562.axf

JavaScript Object Notation format (JSON) in row-major order
http://www.bom.gov.au/fwo/IDQ60801/IDQ60801.94562.json